Weather at Saint-Laurent-du-Maroni Airport

Public forecast

Using degrees Celsius for public forecast. Weather courtesy of forecast.io.

Closest aviation weather report (METAR) to Saint-Laurent-du-Maroni Airport

Closest report is Johan Adolf Pengel International Airport, 69.0 nm (127.7 km) W. Retrieved 2021/01/23 19:00 UTC (1 hour ago):

SMJP 231900Z 05004KT 9999 VCSH SCT010 FEW018CB 27/25 Q1010 NOSIG

Closest aviation forecast (TAF) to Saint-Laurent-du-Maroni Airport

Closest forecast is Johan Adolf Pengel International Airport, 69.0 nm (127.7 km) W. Retrieved 2021/01/23 18:00 UTC (2 hours ago):

TAF SMJP 231600Z 2318/2418 06008KT 9999 SCT010 SCT018 TX30/2417Z TN22/2408Z TEMPO 2318/2323 VRB06G16KT 3000 SHRA TSRA FEW012CB BKN015 TEMPO 2413/2418 08010KT 3000 SHRA BKN015